sensor_id;sensor_type;location;lat;lon;timestamp;temperature;humidity
15286;DHT22;7744;52.172;10.668;2022-10-13T00:02:08;8.00;1.00
15286;DHT22;7744;52.172;10.668;2022-10-13T00:04:34;7.90;1.00
15286;DHT22;7744;52.172;10.668;2022-10-13T00:06:59;7.90;6.00
15286;DHT22;7744;52.172;10.668;2022-10-13T00:09:25;7.80;14.30
15286;DHT22;7744;52.172;10.668;2022-10-13T00:11:51;7.80;27.30
15286;DHT22;7744;52.172;10.668;2022-10-13T00:14:16;7.80;34.70
15286;DHT22;7744;52.172;10.668;2022-10-13T00:16:42;7.80;51.00
15286;DHT22;7744;52.172;10.668;2022-10-13T00:19:07;7.80;64.40
15286;DHT22;7744;52.172;10.668;2022-10-13T00:21:33;7.80;60.40
15286;DHT22;7744;52.172;10.668;2022-10-13T00:23:59;7.70;66.30
15286;DHT22;7744;52.172;10.668;2022-10-13T00:26:25;7.70;71.50
15286;DHT22;7744;52.172;10.668;2022-10-13T00:28:51;7.70;90.10
15286;DHT22;7744;52.172;10.668;2022-10-13T00:31:26;7.70;89.30
15286;DHT22;7744;52.172;10.668;2022-10-13T00:33:53;7.80;99.90
15286;DHT22;7744;52.172;10.668;2022-10-13T00:36:20;7.90;99.90
15286;DHT22;7744;52.172;10.668;2022-10-13T00:38:46;8.00;99.90
15286;DHT22;7744;52.172;10.668;2022-10-13T00:41:12;8.10;99.90
15286;DHT22;7744;52.172;10.668;2022-10-13T00:46:24;8.20;92.00
15286;DHT22;7744;52.172;10.668;2022-10-13T00:48:50;8.20;83.30
15286;DHT22;7744;52.172;10.668;2022-10-13T00:51:20;8.30;77.90
15286;DHT22;7744;52.172;10.668;2022-10-13T00:53:47;8.30;76.50
15286;DHT22;7744;52.172;10.668;2022-10-13T00:56:15;8.30;75.90
15286;DHT22;7744;52.172;10.668;2022-10-13T00:58:43;8.30;90.00
15286;DHT22;7744;52.172;10.668;2022-10-13T01:01:09;8.60;68.80
15286;DHT22;7744;52.172;10.668;2022-10-13T01:03:35;8.30;68.90
15286;DHT22;7744;52.172;10.668;2022-10-13T01:06:02;8.40;66.50
15286;DHT22;7744;52.172;10.668;2022-10-13T01:08:30;8.30;73.80
15286;DHT22;7744;52.172;10.668;2022-10-13T01:21:33;8.50;56.20
15286;DHT22;7744;52.172;10.668;2022-10-13T01:24:29;8.50;29.10
15286;DHT22;7744;52.172;10.668;2022-10-13T01:43:17;8.40;19.20
15286;DHT22;7744;52.172;10.668;2022-10-13T01:46:03;8.40;29.30
15286;DHT22;7744;52.172;10.668;2022-10-13T01:48:31;8.30;54.10
15286;DHT22;7744;52.172;10.668;2022-10-13T01:50:58;8.20;66.60
15286;DHT22;7744;52.172;10.668;2022-10-13T01:53:25;8.20;64.50
15286;DHT22;7744;52.172;10.668;2022-10-13T01:55:54;8.20;92.50
15286;DHT22;7744;52.172;10.668;2022-10-13T01:58:21;8.20;94.10
15286;DHT22;7744;52.172;10.668;2022-10-13T02:03:32;8.10;93.50
15286;DHT22;7744;52.172;10.668;2022-10-13T02:06:20;8.10;99.90
15286;DHT22;7744;52.172;10.668;2022-10-13T02:11:49;8.10;92.10
15286;DHT22;7744;52.172;10.668;2022-10-13T02:14:23;8.10;97.40
15286;DHT22;7744;52.172;10.668;2022-10-13T02:16:52;8.10;96.30
15286;DHT22;7744;52.172;10.668;2022-10-13T02:19:19;8.10;94.70
15286;DHT22;7744;52.172;10.668;2022-10-13T02:21:46;8.10;97.80
15286;DHT22;7744;52.172;10.668;2022-10-13T02:24:12;8.10;99.90
15286;DHT22;7744;52.172;10.668;2022-10-13T02:26:38;8.00;99.90
15286;DHT22;7744;52.172;10.668;2022-10-13T02:29:10;8.10;99.50
15286;DHT22;7744;52.172;10.668;2022-10-13T02:31:36;8.10;94.90
15286;DHT22;7744;52.172;10.668;2022-10-13T02:34:03;8.20;84.90
15286;DHT22;7744;52.172;10.668;2022-10-13T02:36:29;8.10;84.60
15286;DHT22;7744;52.172;10.668;2022-10-13T02:38:55;8.20;59.10
15286;DHT22;7744;52.172;10.668;2022-10-13T02:41:20;8.20;67.10
15286;DHT22;7744;52.172;10.668;2022-10-13T02:43:46;8.10;92.30
15286;DHT22;7744;52.172;10.668;2022-10-13T02:46:12;8.00;89.40
15286;DHT22;7744;52.172;10.668;2022-10-13T02:48:37;8.00;85.90
15286;DHT22;7744;52.172;10.668;2022-10-13T02:51:03;8.00;86.50
15286;DHT22;7744;52.172;10.668;2022-10-13T02:53:28;7.90;96.80
15286;DHT22;7744;52.172;10.668;2022-10-13T02:55:54;7.90;99.90
15286;DHT22;7744;52.172;10.668;2022-10-13T02:58:20;7.80;99.90
15286;DHT22;7744;52.172;10.668;2022-10-13T03:00:45;7.80;99.90
15286;DHT22;7744;52.172;10.668;2022-10-13T03:03:11;7.80;99.90
15286;DHT22;7744;52.172;10.668;2022-10-13T03:05:37;7.80;99.90
15286;DHT22;7744;52.172;10.668;2022-10-13T03:08:02;7.80;99.90
15286;DHT22;7744;52.172;10.668;2022-10-13T03:10:28;7.70;99.90
15286;DHT22;7744;52.172;10.668;2022-10-13T03:12:55;7.80;99.90
15286;DHT22;7744;52.172;10.668;2022-10-13T03:15:21;7.80;99.90
15286;DHT22;7744;52.172;10.668;2022-10-13T03:17:47;7.70;99.90
15286;DHT22;7744;52.172;10.668;2022-10-13T03:20:13;7.70;99.90
15286;DHT22;7744;52.172;10.668;2022-10-13T03:22:38;7.70;99.90
15286;DHT22;7744;52.172;10.668;2022-10-13T03:25:05;7.70;99.90
15286;DHT22;7744;52.172;10.668;2022-10-13T03:27:31;7.80;99.90
15286;DHT22;7744;52.172;10.668;2022-10-13T03:29:56;7.80;99.90
15286;DHT22;7744;52.172;10.668;2022-10-13T03:32:22;7.80;99.90
15286;DHT22;7744;52.172;10.668;2022-10-13T03:34:48;7.80;99.90
15286;DHT22;7744;52.172;10.668;2022-10-13T03:37:14;7.80;99.90
15286;DHT22;7744;52.172;10.668;2022-10-13T03:39:40;7.80;99.90
15286;DHT22;7744;52.172;10.668;2022-10-13T03:42:06;7.90;99.90
15286;DHT22;7744;52.172;10.668;2022-10-13T03:44:32;7.80;99.90
15286;DHT22;7744;52.172;10.668;2022-10-13T03:46:57;7.90;99.90
15286;DHT22;7744;52.172;10.668;2022-10-13T03:49:23;7.90;99.90
15286;DHT22;7744;52.172;10.668;2022-10-13T03:51:48;7.80;99.90
15286;DHT22;7744;52.172;10.668;2022-10-13T03:54:14;7.80;99.90
15286;DHT22;7744;52.172;10.668;2022-10-13T03:56:40;7.70;99.90
15286;DHT22;7744;52.172;10.668;2022-10-13T03:59:07;7.60;99.90
15286;DHT22;7744;52.172;10.668;2022-10-13T04:01:33;7.50;99.90
15286;DHT22;7744;52.172;10.668;2022-10-13T04:03:59;7.50;99.90
15286;DHT22;7744;52.172;10.668;2022-10-13T04:06:27;7.50;99.90
15286;DHT22;7744;52.172;10.668;2022-10-13T04:08:53;7.40;99.90
15286;DHT22;7744;52.172;10.668;2022-10-13T04:11:20;7.40;99.90
15286;DHT22;7744;52.172;10.668;2022-10-13T04:13:46;7.40;99.90
15286;DHT22;7744;52.172;10.668;2022-10-13T04:16:14;7.40;99.90
15286;DHT22;7744;52.172;10.668;2022-10-13T04:18:40;7.40;1.00
15286;DHT22;7744;52.172;10.668;2022-10-13T04:21:07;7.70;1.00
15286;DHT22;7744;52.172;10.668;2022-10-13T04:23:33;7.40;1.00
15286;DHT22;7744;52.172;10.668;2022-10-13T04:25:59;7.30;1.00
15286;DHT22;7744;52.172;10.668;2022-10-13T04:28:24;7.40;1.00
15286;DHT22;7744;52.172;10.668;2022-10-13T04:30:50;7.30;99.90
15286;DHT22;7744;52.172;10.668;2022-10-13T04:33:15;7.30;99.90
15286;DHT22;7744;52.172;10.668;2022-10-13T04:35:41;7.50;99.90
15286;DHT22;7744;52.172;10.668;2022-10-13T04:38:07;7.30;99.90
15286;DHT22;7744;52.172;10.668;2022-10-13T04:40:33;7.60;99.90
15286;DHT22;7744;52.172;10.668;2022-10-13T04:42:59;7.40;99.90
15286;DHT22;7744;52.172;10.668;2022-10-13T04:45:25;7.40;99.90
15286;DHT22;7744;52.172;10.668;2022-10-13T04:47:50;7.40;99.90
15286;DHT22;7744;52.172;10.668;2022-10-13T04:50:16;7.50;99.90
15286;DHT22;7744;52.172;10.668;2022-10-13T04:52:42;7.50;99.90
15286;DHT22;7744;52.172;10.668;2022-10-13T04:55:08;7.50;99.90
15286;DHT22;7744;52.172;10.668;2022-10-13T04:57:34;7.50;99.90
15286;DHT22;7744;52.172;10.668;2022-10-13T05:00:00;7.50;99.90
15286;DHT22;7744;52.172;10.668;2022-10-13T05:02:26;7.60;99.90
15286;DHT22;7744;52.172;10.668;2022-10-13T05:04:51;7.60;99.90
15286;DHT22;7744;52.172;10.668;2022-10-13T05:07:17;7.50;99.90
15286;DHT22;7744;52.172;10.668;2022-10-13T05:09:43;7.50;99.90
15286;DHT22;7744;52.172;10.668;2022-10-13T05:12:08;7.50;99.90
15286;DHT22;7744;52.172;10.668;2022-10-13T05:14:34;7.50;99.90
15286;DHT22;7744;52.172;10.668;2022-10-13T05:17:00;7.50;99.90
15286;DHT22;7744;52.172;10.668;2022-10-13T05:19:26;7.50;99.90
15286;DHT22;7744;52.172;10.668;2022-10-13T05:21:55;7.60;99.90
15286;DHT22;7744;52.172;10.668;2022-10-13T05:24:20;7.60;99.90
15286;DHT22;7744;52.172;10.668;2022-10-13T05:26:55;7.60;99.90
15286;DHT22;7744;52.172;10.668;2022-10-13T05:29:21;7.60;99.90
15286;DHT22;7744;52.172;10.668;2022-10-13T05:31:47;7.60;99.90
15286;DHT22;7744;52.172;10.668;2022-10-13T05:34:12;7.60;99.90
15286;DHT22;7744;52.172;10.668;2022-10-13T05:36:38;7.60;99.90
15286;DHT22;7744;52.172;10.668;2022-10-13T05:39:05;7.50;99.90
15286;DHT22;7744;52.172;10.668;2022-10-13T05:41:34;7.50;99.90
15286;DHT22;7744;52.172;10.668;2022-10-13T05:44:04;7.50;99.90
15286;DHT22;7744;52.172;10.668;2022-10-13T05:46:31;7.50;99.90
15286;DHT22;7744;52.172;10.668;2022-10-13T05:48:57;7.60;99.90
15286;DHT22;7744;52.172;10.668;2022-10-13T05:51:31;7.60;99.90
15286;DHT22;7744;52.172;10.668;2022-10-13T05:54:09;7.60;99.90
15286;DHT22;7744;52.172;10.668;2022-10-13T05:59:41;7.70;99.90
15286;DHT22;7744;52.172;10.668;2022-10-13T06:02:11;7.80;99.90
15286;DHT22;7744;52.172;10.668;2022-10-13T06:04:44;7.70;99.90
15286;DHT22;7744;52.172;10.668;2022-10-13T06:07:10;7.70;99.90
15286;DHT22;7744;52.172;10.668;2022-10-13T06:09:37;7.80;99.90
15286;DHT22;7744;52.172;10.668;2022-10-13T06:12:04;7.80;99.90
15286;DHT22;7744;52.172;10.668;2022-10-13T06:14:30;7.80;99.90
15286;DHT22;7744;52.172;10.668;2022-10-13T06:16:55;7.80;99.90
15286;DHT22;7744;52.172;10.668;2022-10-13T06:19:21;7.80;99.90
15286;DHT22;7744;52.172;10.668;2022-10-13T06:21:46;7.80;99.90
15286;DHT22;7744;52.172;10.668;2022-10-13T06:24:12;7.80;99.90
15286;DHT22;7744;52.172;10.668;2022-10-13T06:26:38;7.90;99.90
15286;DHT22;7744;52.172;10.668;2022-10-13T06:29:03;7.90;99.90
15286;DHT22;7744;52.172;10.668;2022-10-13T06:31:29;7.90;99.90
15286;DHT22;7744;52.172;10.668;2022-10-13T06:33:54;8.00;99.90
15286;DHT22;7744;52.172;10.668;2022-10-13T06:36:20;8.00;99.90
15286;DHT22;7744;52.172;10.668;2022-10-13T06:38:46;8.10;99.90
15286;DHT22;7744;52.172;10.668;2022-10-13T06:41:12;8.20;99.90
15286;DHT22;7744;52.172;10.668;2022-10-13T06:43:38;8.20;1.00
15286;DHT22;7744;52.172;10.668;2022-10-13T06:46:04;8.30;1.00
15286;DHT22;7744;52.172;10.668;2022-10-13T06:48:30;8.40;1.00
15286;DHT22;7744;52.172;10.668;2022-10-13T06:51:07;8.50;1.00
15286;DHT22;7744;52.172;10.668;2022-10-13T06:53:33;8.60;1.00
15286;DHT22;7744;52.172;10.668;2022-10-13T06:56:01;8.70;99.90
15286;DHT22;7744;52.172;10.668;2022-10-13T06:58:27;8.80;99.90
15286;DHT22;7744;52.172;10.668;2022-10-13T07:00:52;8.90;99.90
15286;DHT22;7744;52.172;10.668;2022-10-13T07:03:19;9.10;99.90
15286;DHT22;7744;52.172;10.668;2022-10-13T07:05:44;9.30;99.90
15286;DHT22;7744;52.172;10.668;2022-10-13T07:08:10;9.40;99.90
15286;DHT22;7744;52.172;10.668;2022-10-13T07:10:39;9.60;99.90
15286;DHT22;7744;52.172;10.668;2022-10-13T07:13:05;9.60;99.90
15286;DHT22;7744;52.172;10.668;2022-10-13T07:15:31;9.70;99.90
15286;DHT22;7744;52.172;10.668;2022-10-13T07:17:57;9.80;99.90
15286;DHT22;7744;52.172;10.668;2022-10-13T07:20:23;9.90;99.90
15286;DHT22;7744;52.172;10.668;2022-10-13T07:22:51;9.90;99.90
15286;DHT22;7744;52.172;10.668;2022-10-13T07:25:17;10.00;99.90
15286;DHT22;7744;52.172;10.668;2022-10-13T07:27:42;10.10;99.90
15286;DHT22;7744;52.172;10.668;2022-10-13T07:30:09;10.20;99.90
15286;DHT22;7744;52.172;10.668;2022-10-13T07:32:35;10.20;99.90
15286;DHT22;7744;52.172;10.668;2022-10-13T07:35:02;10.20;99.90
15286;DHT22;7744;52.172;10.668;2022-10-13T07:37:28;10.20;99.90
15286;DHT22;7744;52.172;10.668;2022-10-13T07:39:53;10.20;99.90
15286;DHT22;7744;52.172;10.668;2022-10-13T07:42:19;10.40;99.90
15286;DHT22;7744;52.172;10.668;2022-10-13T07:44:44;10.50;93.80
15286;DHT22;7744;52.172;10.668;2022-10-13T07:47:10;10.60;94.00
15286;DHT22;7744;52.172;10.668;2022-10-13T07:49:36;10.70;66.60
15286;DHT22;7744;52.172;10.668;2022-10-13T07:52:02;10.90;76.20
15286;DHT22;7744;52.172;10.668;2022-10-13T07:54:27;11.00;71.90
15286;DHT22;7744;52.172;10.668;2022-10-13T07:56:54;11.10;52.60
15286;DHT22;7744;52.172;10.668;2022-10-13T07:59:20;11.30;39.00
15286;DHT22;7744;52.172;10.668;2022-10-13T08:01:45;11.60;19.60
15286;DHT22;7744;52.172;10.668;2022-10-13T08:04:11;11.70;1.00
15286;DHT22;7744;52.172;10.668;2022-10-13T08:06:36;12.00;1.00
15286;DHT22;7744;52.172;10.668;2022-10-13T08:09:03;12.10;1.00
15286;DHT22;7744;52.172;10.668;2022-10-13T08:11:29;12.10;1.00
15286;DHT22;7744;52.172;10.668;2022-10-13T08:13:55;12.10;1.00
15286;DHT22;7744;52.172;10.668;2022-10-13T08:16:26;12.10;1.00
15286;DHT22;7744;52.172;10.668;2022-10-13T08:18:52;12.10;1.00
15286;DHT22;7744;52.172;10.668;2022-10-13T08:21:19;12.30;1.00
15286;DHT22;7744;52.172;10.668;2022-10-13T08:23:45;12.30;1.00
15286;DHT22;7744;52.172;10.668;2022-10-13T08:26:17;12.40;1.00
15286;DHT22;7744;52.172;10.668;2022-10-13T08:28:43;12.40;1.00
15286;DHT22;7744;52.172;10.668;2022-10-13T08:31:09;12.50;1.00
15286;DHT22;7744;52.172;10.668;2022-10-13T08:33:34;12.70;1.00
15286;DHT22;7744;52.172;10.668;2022-10-13T08:36:00;12.80;1.00
15286;DHT22;7744;52.172;10.668;2022-10-13T08:38:26;12.90;1.00
15286;DHT22;7744;52.172;10.668;2022-10-13T08:40:51;13.00;1.00
15286;DHT22;7744;52.172;10.668;2022-10-13T08:43:20;13.20;1.00
15286;DHT22;7744;52.172;10.668;2022-10-13T08:45:52;13.00;1.00
15286;DHT22;7744;52.172;10.668;2022-10-13T08:48:35;13.10;1.00
15286;DHT22;7744;52.172;10.668;2022-10-13T08:51:05;13.30;1.00
15286;DHT22;7744;52.172;10.668;2022-10-13T08:53:40;13.40;1.00
15286;DHT22;7744;52.172;10.668;2022-10-13T08:58:41;13.40;1.00
15286;DHT22;7744;52.172;10.668;2022-10-13T09:03:50;13.70;1.00
15286;DHT22;7744;52.172;10.668;2022-10-13T09:09:10;13.80;1.00
15286;DHT22;7744;52.172;10.668;2022-10-13T09:11:38;13.90;1.00
15286;DHT22;7744;52.172;10.668;2022-10-13T09:14:07;14.10;1.00
15286;DHT22;7744;52.172;10.668;2022-10-13T09:16:36;14.20;1.00
15286;DHT22;7744;52.172;10.668;2022-10-13T09:21:42;14.40;1.00
15286;DHT22;7744;52.172;10.668;2022-10-13T09:24:13;14.50;1.00
15286;DHT22;7744;52.172;10.668;2022-10-13T09:26:40;14.50;1.00
15286;DHT22;7744;52.172;10.668;2022-10-13T09:29:20;14.70;1.00
15286;DHT22;7744;52.172;10.668;2022-10-13T09:31:49;14.90;1.00
15286;DHT22;7744;52.172;10.668;2022-10-13T09:36:57;14.90;99.90
15286;DHT22;7744;52.172;10.668;2022-10-13T09:39:22;15.00;99.90
15286;DHT22;7744;52.172;10.668;2022-10-13T09:41:48;15.10;99.90
15286;DHT22;7744;52.172;10.668;2022-10-13T09:44:28;14.80;99.90
15286;DHT22;7744;52.172;10.668;2022-10-13T09:46:56;15.10;99.90
15286;DHT22;7744;52.172;10.668;2022-10-13T09:49:30;14.90;99.90
15286;DHT22;7744;52.172;10.668;2022-10-13T09:54:49;15.10;99.50
15286;DHT22;7744;52.172;10.668;2022-10-13T09:57:24;15.10;30.90
15286;DHT22;7744;52.172;10.668;2022-10-13T10:00:26;15.40;38.80
15286;DHT22;7744;52.172;10.668;2022-10-13T10:05:40;15.60;88.70
15286;DHT22;7744;52.172;10.668;2022-10-13T10:08:16;15.60;24.00
15286;DHT22;7744;52.172;10.668;2022-10-13T10:10:44;16.00;81.20
15286;DHT22;7744;52.172;10.668;2022-10-13T10:13:12;16.30;36.00
15286;DHT22;7744;52.172;10.668;2022-10-13T10:15:54;16.00;32.40
15286;DHT22;7744;52.172;10.668;2022-10-13T10:18:38;15.60;1.00
15286;DHT22;7744;52.172;10.668;2022-10-13T10:24:23;15.60;1.00
15286;DHT22;7744;52.172;10.668;2022-10-13T10:30:13;15.60;1.00
15286;DHT22;7744;52.172;10.668;2022-10-13T10:33:07;15.90;1.00
15286;DHT22;7744;52.172;10.668;2022-10-13T10:35:43;15.50;1.00
15286;DHT22;7744;52.172;10.668;2022-10-13T10:45:58;15.70;1.00
15286;DHT22;7744;52.172;10.668;2022-10-13T10:48:27;15.70;1.00
15286;DHT22;7744;52.172;10.668;2022-10-13T10:50:55;15.90;1.00
15286;DHT22;7744;52.172;10.668;2022-10-13T10:53:33;15.70;1.00
15286;DHT22;7744;52.172;10.668;2022-10-13T10:56:37;15.60;1.00
15286;DHT22;7744;52.172;10.668;2022-10-13T11:04:38;16.10;1.00
15286;DHT22;7744;52.172;10.668;2022-10-13T11:07:09;16.10;1.00
15286;DHT22;7744;52.172;10.668;2022-10-13T11:15:15;16.20;1.00
15286;DHT22;7744;52.172;10.668;2022-10-13T11:17:46;16.20;1.00
15286;DHT22;7744;52.172;10.668;2022-10-13T11:30:54;16.80;1.00
15286;DHT22;7744;52.172;10.668;2022-10-13T11:44:54;16.50;1.00
15286;DHT22;7744;52.172;10.668;2022-10-13T11:50:23;16.60;1.00
15286;DHT22;7744;52.172;10.668;2022-10-13T11:53:17;16.60;1.00
15286;DHT22;7744;52.172;10.668;2022-10-13T11:55:50;16.60;1.00
15286;DHT22;7744;52.172;10.668;2022-10-13T12:00:57;16.70;1.00
15286;DHT22;7744;52.172;10.668;2022-10-13T12:03:29;16.80;1.00
15286;DHT22;7744;52.172;10.668;2022-10-13T12:05:59;17.00;1.00
15286;DHT22;7744;52.172;10.668;2022-10-13T12:08:27;17.20;1.00
15286;DHT22;7744;52.172;10.668;2022-10-13T12:10:54;17.10;1.00
15286;DHT22;7744;52.172;10.668;2022-10-13T12:13:30;17.30;1.00
15286;DHT22;7744;52.172;10.668;2022-10-13T12:15:59;17.30;1.00
15286;DHT22;7744;52.172;10.668;2022-10-13T12:18:26;17.40;1.00
15286;DHT22;7744;52.172;10.668;2022-10-13T12:20:56;17.40;1.00
15286;DHT22;7744;52.172;10.668;2022-10-13T12:23:23;17.40;1.00
15286;DHT22;7744;52.172;10.668;2022-10-13T12:25:51;17.60;1.00
15286;DHT22;7744;52.172;10.668;2022-10-13T12:28:22;17.50;1.00
15286;DHT22;7744;52.172;10.668;2022-10-13T12:30:52;17.70;1.00
15286;DHT22;7744;52.172;10.668;2022-10-13T12:33:29;17.70;1.00
15286;DHT22;7744;52.172;10.668;2022-10-13T12:36:13;17.70;1.00
15286;DHT22;7744;52.172;10.668;2022-10-13T12:38:49;17.80;1.00
15286;DHT22;7744;52.172;10.668;2022-10-13T12:41:18;17.80;1.00
15286;DHT22;7744;52.172;10.668;2022-10-13T12:43:47;17.80;1.00
15286;DHT22;7744;52.172;10.668;2022-10-13T12:46:34;17.80;1.00
15286;DHT22;7744;52.172;10.668;2022-10-13T12:49:23;17.70;1.00
15286;DHT22;7744;52.172;10.668;2022-10-13T12:54:24;17.30;1.00
15286;DHT22;7744;52.172;10.668;2022-10-13T12:56:54;16.90;1.00
15286;DHT22;7744;52.172;10.668;2022-10-13T12:59:21;16.90;1.00
15286;DHT22;7744;52.172;10.668;2022-10-13T13:01:59;16.80;1.00
15286;DHT22;7744;52.172;10.668;2022-10-13T13:04:52;16.80;1.00
15286;DHT22;7744;52.172;10.668;2022-10-13T13:07:35;16.70;1.00
15286;DHT22;7744;52.172;10.668;2022-10-13T13:12:33;16.70;1.00
15286;DHT22;7744;52.172;10.668;2022-10-13T13:17:49;17.20;1.00
15286;DHT22;7744;52.172;10.668;2022-10-13T13:20:25;17.30;1.00
15286;DHT22;7744;52.172;10.668;2022-10-13T13:22:52;17.30;1.00
15286;DHT22;7744;52.172;10.668;2022-10-13T13:25:17;17.30;1.00
15286;DHT22;7744;52.172;10.668;2022-10-13T13:27:43;17.20;1.00
15286;DHT22;7744;52.172;10.668;2022-10-13T13:30:14;17.40;1.00
15286;DHT22;7744;52.172;10.668;2022-10-13T13:32:40;17.40;1.00
15286;DHT22;7744;52.172;10.668;2022-10-13T13:35:06;17.50;1.00
15286;DHT22;7744;52.172;10.668;2022-10-13T13:37:36;17.30;1.00
15286;DHT22;7744;52.172;10.668;2022-10-13T13:40:04;17.20;1.00
15286;DHT22;7744;52.172;10.668;2022-10-13T13:42:30;17.10;1.00
15286;DHT22;7744;52.172;10.668;2022-10-13T13:44:55;16.90;1.00
15286;DHT22;7744;52.172;10.668;2022-10-13T13:47:26;16.80;1.00
15286;DHT22;7744;52.172;10.668;2022-10-13T13:49:53;16.60;1.00
15286;DHT22;7744;52.172;10.668;2022-10-13T13:52:21;16.50;1.00
15286;DHT22;7744;52.172;10.668;2022-10-13T13:54:48;16.40;1.00
15286;DHT22;7744;52.172;10.668;2022-10-13T13:57:15;16.50;1.00
15286;DHT22;7744;52.172;10.668;2022-10-13T13:59:41;16.50;1.00
15286;DHT22;7744;52.172;10.668;2022-10-13T14:02:13;16.60;1.00
15286;DHT22;7744;52.172;10.668;2022-10-13T14:04:39;16.90;1.00
15286;DHT22;7744;52.172;10.668;2022-10-13T14:07:05;16.80;1.00
15286;DHT22;7744;52.172;10.668;2022-10-13T14:09:30;16.70;1.00
15286;DHT22;7744;52.172;10.668;2022-10-13T14:11:56;16.70;1.00
15286;DHT22;7744;52.172;10.668;2022-10-13T14:14:21;16.80;1.00
15286;DHT22;7744;52.172;10.668;2022-10-13T14:16:47;16.80;1.00
15286;DHT22;7744;52.172;10.668;2022-10-13T14:19:12;16.70;1.00
15286;DHT22;7744;52.172;10.668;2022-10-13T14:21:38;16.60;1.00
15286;DHT22;7744;52.172;10.668;2022-10-13T14:24:04;16.50;1.00
15286;DHT22;7744;52.172;10.668;2022-10-13T14:26:30;16.50;1.00
15286;DHT22;7744;52.172;10.668;2022-10-13T14:28:55;16.40;1.00
15286;DHT22;7744;52.172;10.668;2022-10-13T14:31:22;16.50;1.00
15286;DHT22;7744;52.172;10.668;2022-10-13T14:33:48;16.40;1.00
15286;DHT22;7744;52.172;10.668;2022-10-13T14:36:14;16.50;1.00
15286;DHT22;7744;52.172;10.668;2022-10-13T14:38:39;16.60;1.00
15286;DHT22;7744;52.172;10.668;2022-10-13T14:41:05;16.70;1.00
15286;DHT22;7744;52.172;10.668;2022-10-13T14:43:31;16.70;1.00
15286;DHT22;7744;52.172;10.668;2022-10-13T14:46:05;16.80;1.00
15286;DHT22;7744;52.172;10.668;2022-10-13T14:48:31;16.90;1.00
15286;DHT22;7744;52.172;10.668;2022-10-13T14:50:57;17.00;1.00
15286;DHT22;7744;52.172;10.668;2022-10-13T14:53:23;16.80;1.00
15286;DHT22;7744;52.172;10.668;2022-10-13T14:55:51;16.80;1.00
15286;DHT22;7744;52.172;10.668;2022-10-13T14:58:16;16.60;1.00
15286;DHT22;7744;52.172;10.668;2022-10-13T15:00:42;16.60;1.00
15286;DHT22;7744;52.172;10.668;2022-10-13T15:03:08;16.40;1.00
15286;DHT22;7744;52.172;10.668;2022-10-13T15:05:34;16.30;1.00
15286;DHT22;7744;52.172;10.668;2022-10-13T15:07:59;16.10;1.00
15286;DHT22;7744;52.172;10.668;2022-10-13T15:10:25;16.00;1.00
15286;DHT22;7744;52.172;10.668;2022-10-13T15:12:51;15.80;1.00
15286;DHT22;7744;52.172;10.668;2022-10-13T15:15:16;15.60;1.00
15286;DHT22;7744;52.172;10.668;2022-10-13T15:17:42;15.60;1.00
15286;DHT22;7744;52.172;10.668;2022-10-13T15:20:08;15.50;1.00
15286;DHT22;7744;52.172;10.668;2022-10-13T15:22:33;15.40;1.00
15286;DHT22;7744;52.172;10.668;2022-10-13T15:24:59;15.30;1.00
15286;DHT22;7744;52.172;10.668;2022-10-13T15:27:25;15.30;1.00
15286;DHT22;7744;52.172;10.668;2022-10-13T15:29:50;15.30;1.00
15286;DHT22;7744;52.172;10.668;2022-10-13T15:32:17;15.30;1.00
15286;DHT22;7744;52.172;10.668;2022-10-13T15:34:44;15.30;1.00
15286;DHT22;7744;52.172;10.668;2022-10-13T15:37:10;15.20;1.00
15286;DHT22;7744;52.172;10.668;2022-10-13T15:39:36;15.20;1.00
15286;DHT22;7744;52.172;10.668;2022-10-13T15:42:03;15.10;1.00
15286;DHT22;7744;52.172;10.668;2022-10-13T15:44:28;15.00;1.00
15286;DHT22;7744;52.172;10.668;2022-10-13T15:46:56;15.00;1.00
15286;DHT22;7744;52.172;10.668;2022-10-13T15:49:22;14.90;1.00
15286;DHT22;7744;52.172;10.668;2022-10-13T15:51:49;14.90;1.00
15286;DHT22;7744;52.172;10.668;2022-10-13T15:54:15;14.80;1.00
15286;DHT22;7744;52.172;10.668;2022-10-13T15:59:21;14.80;1.00
15286;DHT22;7744;52.172;10.668;2022-10-13T16:01:47;14.70;1.00
15286;DHT22;7744;52.172;10.668;2022-10-13T16:04:13;14.70;1.00
15286;DHT22;7744;52.172;10.668;2022-10-13T16:06:38;14.60;1.00
15286;DHT22;7744;52.172;10.668;2022-10-13T16:09:04;14.50;1.00
15286;DHT22;7744;52.172;10.668;2022-10-13T16:11:29;14.50;1.00
15286;DHT22;7744;52.172;10.668;2022-10-13T16:13:55;14.50;1.00
15286;DHT22;7744;52.172;10.668;2022-10-13T16:16:21;14.50;1.00
15286;DHT22;7744;52.172;10.668;2022-10-13T16:18:48;14.40;1.00
15286;DHT22;7744;52.172;10.668;2022-10-13T16:21:17;14.30;1.00
15286;DHT22;7744;52.172;10.668;2022-10-13T16:23:43;14.20;1.00
15286;DHT22;7744;52.172;10.668;2022-10-13T16:26:09;14.10;1.00
15286;DHT22;7744;52.172;10.668;2022-10-13T16:28:35;14.10;1.00
15286;DHT22;7744;52.172;10.668;2022-10-13T16:31:06;14.00;1.00
15286;DHT22;7744;52.172;10.668;2022-10-13T16:33:36;13.90;1.00
15286;DHT22;7744;52.172;10.668;2022-10-13T16:36:06;13.70;1.00
15286;DHT22;7744;52.172;10.668;2022-10-13T16:38:33;13.60;1.00
15286;DHT22;7744;52.172;10.668;2022-10-13T16:41:03;13.60;1.00
15286;DHT22;7744;52.172;10.668;2022-10-13T16:43:29;13.50;1.00
15286;DHT22;7744;52.172;10.668;2022-10-13T16:45:59;13.40;1.00
15286;DHT22;7744;52.172;10.668;2022-10-13T16:48:26;13.30;1.00
15286;DHT22;7744;52.172;10.668;2022-10-13T16:50:52;13.20;1.00
15286;DHT22;7744;52.172;10.668;2022-10-13T16:53:18;13.20;1.00
15286;DHT22;7744;52.172;10.668;2022-10-13T16:55:43;13.10;1.00
15286;DHT22;7744;52.172;10.668;2022-10-13T16:58:09;12.90;1.00
15286;DHT22;7744;52.172;10.668;2022-10-13T17:00:36;13.00;1.00
15286;DHT22;7744;52.172;10.668;2022-10-13T17:03:03;12.90;1.00
15286;DHT22;7744;52.172;10.668;2022-10-13T17:05:28;12.80;1.00
15286;DHT22;7744;52.172;10.668;2022-10-13T17:07:54;12.80;1.00
15286;DHT22;7744;52.172;10.668;2022-10-13T17:10:19;12.70;1.00
15286;DHT22;7744;52.172;10.668;2022-10-13T17:12:45;12.80;1.00
15286;DHT22;7744;52.172;10.668;2022-10-13T17:15:11;12.60;1.00
15286;DHT22;7744;52.172;10.668;2022-10-13T17:17:37;12.70;1.00
15286;DHT22;7744;52.172;10.668;2022-10-13T17:20:03;12.70;1.00
15286;DHT22;7744;52.172;10.668;2022-10-13T17:22:31;12.70;1.00
15286;DHT22;7744;52.172;10.668;2022-10-13T17:24:57;12.70;1.00
15286;DHT22;7744;52.172;10.668;2022-10-13T17:27:23;12.70;1.00
15286;DHT22;7744;52.172;10.668;2022-10-13T17:29:51;12.50;1.00
15286;DHT22;7744;52.172;10.668;2022-10-13T17:32:17;12.50;1.00
15286;DHT22;7744;52.172;10.668;2022-10-13T17:34:43;12.50;1.00
15286;DHT22;7744;52.172;10.668;2022-10-13T17:37:08;12.40;1.00
15286;DHT22;7744;52.172;10.668;2022-10-13T17:39:34;12.40;1.00
15286;DHT22;7744;52.172;10.668;2022-10-13T17:42:00;12.40;1.00
15286;DHT22;7744;52.172;10.668;2022-10-13T17:44:25;12.30;1.00
15286;DHT22;7744;52.172;10.668;2022-10-13T17:46:51;12.20;1.00
15286;DHT22;7744;52.172;10.668;2022-10-13T17:49:17;12.20;1.00
15286;DHT22;7744;52.172;10.668;2022-10-13T17:51:43;12.20;1.00